createdAt,value
2019-04-01T00:02:17.264Z,58.76
2019-04-01T00:04:43.606Z,59.36
2019-04-01T00:07:09.840Z,59.35
2019-04-01T00:09:36.517Z,59.53
2019-04-01T00:12:03.827Z,59.96
2019-04-01T00:14:29.951Z,60.15
2019-04-01T00:16:56.087Z,60.40
2019-04-01T00:19:22.476Z,59.96
2019-04-01T00:21:48.828Z,59.84
2019-04-01T00:24:15.070Z,59.98
2019-04-01T00:26:41.288Z,60.39
2019-04-01T00:29:07.615Z,60.39
2019-04-01T00:31:33.864Z,60.28
2019-04-01T00:34:00.004Z,60.23
2019-04-01T00:36:26.177Z,60.58
2019-04-01T00:38:52.439Z,60.39
2019-04-01T00:41:18.719Z,60.61
2019-04-01T00:43:55.445Z,60.94
2019-04-01T00:46:22.026Z,60.88
2019-04-01T00:48:48.306Z,61.05
2019-04-01T00:51:14.642Z,60.97
2019-04-01T00:53:41.006Z,61.27
2019-04-01T00:56:07.147Z,61.49
2019-04-01T00:58:33.500Z,61.29
2019-04-01T01:00:59.808Z,61.87
2019-04-01T01:03:26.055Z,61.29
2019-04-01T01:05:53.171Z,61.45
2019-04-01T01:08:19.308Z,61.85
2019-04-01T01:10:45.407Z,61.68
2019-04-01T01:13:11.516Z,61.92
2019-04-01T01:15:37.648Z,61.81
2019-04-01T01:18:03.904Z,61.77
2019-04-01T01:20:30.150Z,61.81
2019-04-01T01:22:56.468Z,61.93
2019-04-01T01:25:22.768Z,62.32
2019-04-01T01:27:49.116Z,62.15
2019-04-01T01:30:15.536Z,62.36
2019-04-01T01:32:41.785Z,62.38
2019-04-01T01:35:08.596Z,62.59
2019-04-01T01:37:34.821Z,62.77
2019-04-01T01:40:01.259Z,62.68
2019-04-01T01:42:28.482Z,62.73
2019-04-01T01:44:54.658Z,63.12
2019-04-01T01:47:20.879Z,63.24
2019-04-01T01:49:47.113Z,63.16
2019-04-01T01:52:13.221Z,63.53
2019-04-01T01:54:39.452Z,63.26
2019-04-01T01:57:05.646Z,63.07
2019-04-01T01:59:31.885Z,63.45
2019-04-01T02:01:58.032Z,63.49
2019-04-01T02:04:24.345Z,63.28
2019-04-01T02:06:50.774Z,63.65
2019-04-01T02:09:17.066Z,63.67
2019-04-01T02:11:43.336Z,63.53
2019-04-01T02:14:09.636Z,63.27
2019-04-01T02:16:35.857Z,63.75
2019-04-01T02:19:02.794Z,63.55
2019-04-01T02:21:29.070Z,63.41
2019-04-01T02:23:55.201Z,63.27
2019-04-01T02:26:21.297Z,63.83
2019-04-01T02:28:47.400Z,63.89
2019-04-01T02:31:13.666Z,63.90
2019-04-01T02:33:39.778Z,64.27
2019-04-01T02:36:06.079Z,63.93
2019-04-01T02:38:32.348Z,63.41
2019-04-01T02:40:58.710Z,64.07
2019-04-01T02:43:25.071Z,63.95
2019-04-01T02:45:51.470Z,64.10
2019-04-01T02:48:17.818Z,63.90
2019-04-01T02:50:44.135Z,64.03
2019-04-01T02:53:10.235Z,64.50
2019-04-01T02:55:36.535Z,64.58
2019-04-01T02:58:03.007Z,64.50
2019-04-01T03:00:29.383Z,64.25
2019-04-01T03:02:55.609Z,64.30
2019-04-01T03:05:21.816Z,64.24
2019-04-01T03:07:48.015Z,64.36
2019-04-01T03:10:14.457Z,64.43
2019-04-01T03:12:40.688Z,64.62
2019-04-01T03:15:07.136Z,64.67
2019-04-01T03:17:33.266Z,65.05
2019-04-01T03:19:59.640Z,65.07
2019-04-01T03:22:25.896Z,65.43
2019-04-01T03:24:52.109Z,65.48
2019-04-01T03:27:18.434Z,65.10
2019-04-01T03:29:44.600Z,65.37
2019-04-01T03:32:10.756Z,64.98
2019-04-01T03:34:36.901Z,64.76
2019-04-01T03:37:03.079Z,64.83
2019-04-01T03:39:29.308Z,65.35
2019-04-01T03:41:55.410Z,67.48
2019-04-01T03:44:21.726Z,68.58
2019-04-01T03:46:47.849Z,68.50
2019-04-01T03:49:14.037Z,67.86
2019-04-01T03:51:40.467Z,67.45
2019-04-01T03:54:06.763Z,67.42
2019-04-01T03:56:33.037Z,67.35
2019-04-01T03:58:59.333Z,67.52
2019-04-01T04:01:30.032Z,67.19
2019-04-01T04:03:53.644Z,67.35
2019-04-01T04:06:19.963Z,67.48
2019-04-01T04:08:46.326Z,67.38
2019-04-01T04:11:12.738Z,67.53
2019-04-01T04:13:39.051Z,67.52
2019-04-01T04:16:05.421Z,67.29
2019-04-01T04:18:31.732Z,67.45
2019-04-01T04:20:57.949Z,67.28
2019-04-01T04:23:24.111Z,67.04
2019-04-01T04:25:50.629Z,66.43
2019-04-01T04:28:17.255Z,66.59
2019-04-01T04:30:43.614Z,66.42
2019-04-01T04:33:09.882Z,66.04
2019-04-01T04:35:36.030Z,65.92
2019-04-01T04:38:02.408Z,65.71
2019-04-01T04:40:28.808Z,65.55
2019-04-01T04:42:55.243Z,65.50
2019-04-01T04:45:21.619Z,65.65
2019-04-01T04:47:47.961Z,65.45
2019-04-01T04:50:14.211Z,64.75
2019-04-01T04:52:40.563Z,64.86
2019-04-01T04:55:06.911Z,64.77
2019-04-01T04:57:33.215Z,64.75
2019-04-01T04:59:59.463Z,64.74
2019-04-01T05:02:25.760Z,64.28
2019-04-01T05:04:51.963Z,64.13
2019-04-01T05:07:18.288Z,64.17
2019-04-01T05:09:45.677Z,64.22
2019-04-01T05:12:13.248Z,63.93
2019-04-01T05:14:39.435Z,63.94
2019-04-01T05:17:05.771Z,63.43
2019-04-01T05:19:32.440Z,63.53
2019-04-01T05:21:58.753Z,63.32
2019-04-01T05:24:25.422Z,63.36
2019-04-01T05:26:51.857Z,63.08
2019-04-01T05:29:20.276Z,62.91
2019-04-01T05:31:47.730Z,62.36
2019-04-01T05:34:17.679Z,62.47
2019-04-01T05:36:45.284Z,62.30
2019-04-01T05:39:11.715Z,62.35
2019-04-01T05:41:38.025Z,61.98
2019-04-01T05:44:04.461Z,61.61
2019-04-01T05:46:30.808Z,61.49
2019-04-01T05:48:57.403Z,61.48
2019-04-01T05:51:23.753Z,61.02
2019-04-01T05:53:50.043Z,59.27
2019-04-01T05:56:16.354Z,58.66
2019-04-01T05:58:42.663Z,59.01
2019-04-01T06:01:10.956Z,57.04
2019-04-01T06:03:37.366Z,56.85
2019-04-01T06:06:03.683Z,55.63
2019-04-01T06:08:30.000Z,55.87
2019-04-01T06:10:56.507Z,55.24
2019-04-01T06:13:22.886Z,53.74
2019-04-01T06:15:49.228Z,53.78
2019-04-01T06:18:15.517Z,52.38
2019-04-01T06:20:41.714Z,52.03
2019-04-01T06:23:07.811Z,51.85
2019-04-01T06:25:34.181Z,52.08
2019-04-01T06:28:00.398Z,50.88
2019-04-01T06:30:26.722Z,50.50
2019-04-01T06:32:53.179Z,49.11
2019-04-01T06:35:19.405Z,47.90
2019-04-01T06:37:45.829Z,47.31
2019-04-01T06:40:12.112Z,48.51
2019-04-01T06:42:38.539Z,47.95
2019-04-01T06:45:06.537Z,47.81
2019-04-01T06:47:33.462Z,48.49
2019-04-01T06:49:59.796Z,47.88
2019-04-01T06:52:26.013Z,47.53
2019-04-01T06:54:52.215Z,46.75
2019-04-01T06:57:18.420Z,46.38
2019-04-01T06:59:45.234Z,47.34
2019-04-01T07:02:11.448Z,46.43
2019-04-01T07:04:37.669Z,46.89
2019-04-01T07:07:17.897Z,46.17
2019-04-01T07:09:32.626Z,46.28
2019-04-01T07:11:59.046Z,45.98
2019-04-01T07:14:25.373Z,45.30
2019-04-01T07:16:51.602Z,44.76
2019-04-01T07:19:18.018Z,44.69
2019-04-01T07:21:44.329Z,44.33
2019-04-01T07:24:10.832Z,44.34
2019-04-01T07:26:36.955Z,44.04
2019-04-01T07:29:03.251Z,45.00
2019-04-01T07:31:29.551Z,44.13
2019-04-01T07:33:55.895Z,44.66
2019-04-01T07:36:22.541Z,43.40
2019-04-01T07:38:49.856Z,42.52
2019-04-01T07:41:17.276Z,43.39
2019-04-01T07:43:43.606Z,42.41
2019-04-01T07:46:09.849Z,42.43
2019-04-01T07:48:36.067Z,42.88
2019-04-01T07:51:02.402Z,42.70
2019-04-01T07:53:28.724Z,42.73
2019-04-01T07:55:55.036Z,42.48
2019-04-01T07:58:21.615Z,42.72
2019-04-01T08:00:48.038Z,42.39
2019-04-01T08:03:14.447Z,41.85
2019-04-01T08:05:40.664Z,41.30
2019-04-01T08:08:07.109Z,41.18
2019-04-01T08:10:33.439Z,40.71
2019-04-01T08:12:59.735Z,40.40
2019-04-01T08:15:26.021Z,40.59
2019-04-01T08:17:52.240Z,40.16
2019-04-01T08:20:18.767Z,40.80
2019-04-01T08:22:44.965Z,40.84
2019-04-01T08:25:11.144Z,40.60
2019-04-01T08:27:37.438Z,40.23
2019-04-01T08:30:07.901Z,39.74
2019-04-01T08:32:34.731Z,39.66
2019-04-01T08:35:01.593Z,39.50
2019-04-01T08:37:28.167Z,39.32
2019-04-01T08:39:54.462Z,39.09
2019-04-01T08:42:20.834Z,38.74
2019-04-01T08:44:47.137Z,38.50
2019-04-01T08:47:13.448Z,38.58
2019-04-01T08:49:39.889Z,38.61
2019-04-01T08:52:06.221Z,38.74
2019-04-01T08:54:32.546Z,38.70
2019-04-01T08:56:59.169Z,37.69
2019-04-01T08:59:25.689Z,38.18
2019-04-01T09:01:52.016Z,37.15
2019-04-01T09:04:18.529Z,38.25
2019-04-01T09:06:44.843Z,38.33
2019-04-01T09:09:11.099Z,38.75
2019-04-01T09:11:38.626Z,37.90
2019-04-01T09:14:07.011Z,37.32
2019-04-01T09:16:33.679Z,37.38
2019-04-01T09:18:59.895Z,36.80
2019-04-01T09:21:26.136Z,37.03
2019-04-01T09:23:52.514Z,37.90
2019-04-01T09:26:18.806Z,37.77
2019-04-01T09:28:45.137Z,37.03
2019-04-01T09:31:11.474Z,37.17
2019-04-01T09:33:37.702Z,38.17
2019-04-01T09:36:03.947Z,35.56
2019-04-01T09:38:30.188Z,37.10
2019-04-01T09:40:56.476Z,36.50
2019-04-01T09:43:22.589Z,35.88
2019-04-01T09:45:48.957Z,36.07
2019-04-01T09:48:15.185Z,35.99
2019-04-01T09:50:41.475Z,36.50
2019-04-01T09:53:07.825Z,35.89
2019-04-01T09:55:34.162Z,36.25
2019-04-01T09:58:00.680Z,37.03
2019-04-01T10:00:26.992Z,36.21
2019-04-01T10:02:53.337Z,36.50
2019-04-01T10:05:19.673Z,36.65
2019-04-01T10:07:46.217Z,36.69
2019-04-01T10:10:12.745Z,35.90
2019-04-01T10:12:38.858Z,35.28
2019-04-01T10:15:05.529Z,35.50
2019-04-01T10:17:32.289Z,35.69
2019-04-01T10:20:00.855Z,35.82
2019-04-01T10:22:26.776Z,36.30
2019-04-01T10:24:53.075Z,36.08
2019-04-01T10:27:19.311Z,35.24
2019-04-01T10:29:45.462Z,34.46
2019-04-01T10:32:11.697Z,35.91
2019-04-01T10:34:38.058Z,34.68
2019-04-01T10:37:04.477Z,34.08
2019-04-01T10:39:30.957Z,34.89
2019-04-01T10:41:57.310Z,35.42
2019-04-01T10:44:23.701Z,34.14
2019-04-01T10:46:50.008Z,35.23
2019-04-01T10:49:16.578Z,34.72
2019-04-01T10:51:42.856Z,33.95
2019-04-01T10:54:09.146Z,34.72
2019-04-01T10:56:36.045Z,35.68
2019-04-01T10:59:02.481Z,34.89
2019-04-01T11:01:28.825Z,34.64
2019-04-01T11:03:55.140Z,35.28
2019-04-01T11:06:21.880Z,35.17
2019-04-01T11:08:48.093Z,35.62
2019-04-01T11:11:14.296Z,34.72
2019-04-01T11:13:40.522Z,34.55
2019-04-01T11:16:06.856Z,35.51
2019-04-01T11:18:33.254Z,36.21
2019-04-01T11:20:59.434Z,33.83
2019-04-01T11:23:25.761Z,34.06
2019-04-01T11:25:51.880Z,33.95
2019-04-01T11:28:18.210Z,34.44
2019-04-01T11:30:44.670Z,33.60
2019-04-01T11:33:11.117Z,33.88
2019-04-01T11:35:37.353Z,34.40
2019-04-01T11:38:03.759Z,34.35
2019-04-01T11:40:30.118Z,35.17
2019-04-01T11:42:56.928Z,34.65
2019-04-01T11:45:23.289Z,34.61
2019-04-01T11:47:49.723Z,34.79
2019-04-01T11:50:16.105Z,32.85
2019-04-01T11:52:42.517Z,33.81
2019-04-01T11:55:09.664Z,33.30
2019-04-01T11:57:36.174Z,34.09
2019-04-01T12:00:10.122Z,34.17
2019-04-01T12:02:34.665Z,33.75
2019-04-01T12:05:01.042Z,34.72
2019-04-01T12:07:27.426Z,33.53
2019-04-01T12:09:53.744Z,33.48
2019-04-01T12:12:23.813Z,33.27
2019-04-01T12:14:48.038Z,33.08
2019-04-01T12:17:14.134Z,33.55
2019-04-01T12:19:42.262Z,32.45
2019-04-01T12:22:08.645Z,33.32
2019-04-01T12:24:35.250Z,32.66
2019-04-01T12:27:01.553Z,33.90
2019-04-01T12:29:27.668Z,33.18
2019-04-01T12:31:53.796Z,33.19
2019-04-01T12:34:20.611Z,32.79
2019-04-01T12:36:48.371Z,32.02
2019-04-01T12:39:15.353Z,32.25
2019-04-01T12:41:41.428Z,32.02
2019-04-01T12:44:07.659Z,31.19
2019-04-01T12:46:34.273Z,32.05
2019-04-01T12:49:00.475Z,32.21
2019-04-01T12:51:27.068Z,32.76
2019-04-01T12:53:53.366Z,31.11
2019-04-01T12:56:19.571Z,33.22
2019-04-01T12:58:45.706Z,32.12
2019-04-01T13:01:12.006Z,32.87
2019-04-01T13:03:38.112Z,30.99
2019-04-01T13:06:04.242Z,31.04
2019-04-01T13:08:30.461Z,31.59
2019-04-01T13:10:56.835Z,31.33
2019-04-01T13:13:23.316Z,31.57
2019-04-01T13:15:49.828Z,31.43
2019-04-01T13:18:16.062Z,31.53
2019-04-01T13:20:42.364Z,32.44
2019-04-01T13:23:08.993Z,31.00
2019-04-01T13:25:35.278Z,32.50
2019-04-01T13:28:01.504Z,31.02
2019-04-01T13:30:27.738Z,33.31
2019-04-01T13:32:54.011Z,31.36
2019-04-01T13:35:20.122Z,31.20
2019-04-01T13:37:46.944Z,31.58
2019-04-01T13:40:13.421Z,31.82
2019-04-01T13:42:39.514Z,33.12
2019-04-01T13:45:05.899Z,31.71
2019-04-01T13:47:32.136Z,31.04
2019-04-01T13:49:58.258Z,31.45
2019-04-01T13:52:24.510Z,30.37
2019-04-01T13:54:50.850Z,32.12
2019-04-01T13:57:17.072Z,33.77
2019-04-01T13:59:49.570Z,33.84
2019-04-01T14:02:11.313Z,32.18
2019-04-01T14:04:37.667Z,31.83
2019-04-01T14:07:03.996Z,32.54
2019-04-01T14:09:30.961Z,31.64
2019-04-01T14:11:57.580Z,31.14
2019-04-01T14:14:23.938Z,31.59
2019-04-01T14:16:50.270Z,32.39
2019-04-01T14:19:16.647Z,32.17
2019-04-01T14:21:42.921Z,32.16
2019-04-01T14:24:09.250Z,32.87
2019-04-01T14:26:35.428Z,32.98
2019-04-01T14:29:01.535Z,33.08
2019-04-01T14:31:27.893Z,32.68
2019-04-01T14:33:54.239Z,33.65
2019-04-01T14:36:20.401Z,33.98
2019-04-01T14:38:46.745Z,32.50
2019-04-01T14:41:13.263Z,31.89
2019-04-01T14:43:40.285Z,33.03
2019-04-01T14:46:06.741Z,32.89
2019-04-01T14:48:33.102Z,32.90
2019-04-01T14:50:59.346Z,32.89
2019-04-01T14:53:25.566Z,32.35
2019-04-01T14:55:51.972Z,32.56
2019-04-01T14:58:18.211Z,32.45
2019-04-01T15:00:46.352Z,32.12
2019-04-01T15:03:12.617Z,32.06
2019-04-01T15:05:38.855Z,32.55
2019-04-01T15:08:05.179Z,32.21
2019-04-01T15:10:31.512Z,32.79
2019-04-01T15:13:05.773Z,32.59
2019-04-01T15:15:27.178Z,32.51
2019-04-01T15:17:53.283Z,32.93
2019-04-01T15:20:19.623Z,32.76
2019-04-01T15:22:45.856Z,32.35
2019-04-01T15:25:13.953Z,33.24
2019-04-01T15:27:40.156Z,34.06
2019-04-01T15:30:07.974Z,33.87
2019-04-01T15:32:34.373Z,33.22
2019-04-01T15:35:00.623Z,33.36
2019-04-01T15:37:27.041Z,32.81
2019-04-01T15:39:53.134Z,32.73
2019-04-01T15:42:19.563Z,33.58
2019-04-01T15:44:45.878Z,33.22
2019-04-01T15:47:12.330Z,32.77
2019-04-01T15:49:40.091Z,32.81
2019-04-01T15:52:07.697Z,32.21
2019-04-01T15:54:33.984Z,32.78
2019-04-01T15:57:00.457Z,33.56
2019-04-01T15:59:26.810Z,33.21
2019-04-01T16:01:54.243Z,33.12
2019-04-01T16:04:20.969Z,33.68
2019-04-01T16:06:47.164Z,33.46
2019-04-01T16:09:13.301Z,33.26
2019-04-01T16:11:39.498Z,32.92
2019-04-01T16:14:05.852Z,33.07
2019-04-01T16:16:32.075Z,33.68
2019-04-01T16:18:59.227Z,33.69
2019-04-01T16:21:26.272Z,34.09
2019-04-01T16:23:52.688Z,33.85
2019-04-01T16:26:18.917Z,33.48
2019-04-01T16:28:45.276Z,33.25
2019-04-01T16:31:11.551Z,33.84
2019-04-01T16:33:37.811Z,34.45
2019-04-01T16:36:04.144Z,34.51
2019-04-01T16:38:30.275Z,34.04
2019-04-01T16:40:57.611Z,33.94
2019-04-01T16:43:24.088Z,34.18
2019-04-01T16:45:50.373Z,34.16
2019-04-01T16:48:16.662Z,34.57
2019-04-01T16:50:43.335Z,34.20
2019-04-01T16:53:09.596Z,34.56
2019-04-01T16:55:36.265Z,35.32
2019-04-01T16:58:04.110Z,34.89
2019-04-01T17:00:30.434Z,35.10
2019-04-01T17:02:56.687Z,35.12
2019-04-01T17:05:32.010Z,34.52
2019-04-01T17:07:58.253Z,34.57
2019-04-01T17:10:24.651Z,34.72
2019-04-01T17:12:51.102Z,34.52
2019-04-01T17:15:17.647Z,34.91
2019-04-01T17:17:43.976Z,35.42
2019-04-01T17:20:10.475Z,35.45
2019-04-01T17:22:36.670Z,35.31
2019-04-01T17:25:04.857Z,35.78
2019-04-01T17:27:31.067Z,35.70
2019-04-01T17:29:57.366Z,36.26
2019-04-01T17:32:23.643Z,36.03
2019-04-01T17:34:49.810Z,36.20
2019-04-01T17:37:16.236Z,36.14
2019-04-01T17:39:42.472Z,36.38
2019-04-01T17:42:08.689Z,36.77
2019-04-01T17:44:35.061Z,37.03
2019-04-01T17:47:01.390Z,36.60
2019-04-01T17:49:28.724Z,36.94
2019-04-01T17:51:56.337Z,37.08
2019-04-01T17:54:22.848Z,37.53
2019-04-01T17:56:49.181Z,37.84
2019-04-01T17:59:15.781Z,37.02
2019-04-01T18:01:42.293Z,37.43
2019-04-01T18:04:08.845Z,36.95
2019-04-01T18:06:35.065Z,38.09
2019-04-01T18:09:02.154Z,37.41
2019-04-01T18:11:30.774Z,37.82
2019-04-01T18:13:57.121Z,38.18
2019-04-01T18:16:23.337Z,38.34
2019-04-01T18:18:49.689Z,38.07
2019-04-01T18:21:15.925Z,38.41
2019-04-01T18:23:42.326Z,37.89
2019-04-01T18:26:08.570Z,37.85
2019-04-01T18:28:35.091Z,38.01
2019-04-01T18:31:01.355Z,38.10
2019-04-01T18:33:27.554Z,39.25
2019-04-01T18:35:54.360Z,38.91
2019-04-01T18:38:21.042Z,38.52
2019-04-01T18:40:47.290Z,38.82
2019-04-01T18:43:13.624Z,39.51
2019-04-01T18:45:41.086Z,39.41
2019-04-01T18:48:07.412Z,39.41
2019-04-01T18:50:33.766Z,39.49
2019-04-01T18:53:00.006Z,39.82
2019-04-01T18:55:26.157Z,39.57
2019-04-01T18:57:52.575Z,39.73
2019-04-01T19:00:19.706Z,39.73
2019-04-01T19:02:46.150Z,39.53
2019-04-01T19:05:12.841Z,40.33
2019-04-01T19:07:39.056Z,40.33
2019-04-01T19:10:06.854Z,40.62
2019-04-01T19:12:33.371Z,40.28
2019-04-01T19:15:02.428Z,39.96
2019-04-01T19:17:27.886Z,39.96
2019-04-01T19:19:54.006Z,40.61
2019-04-01T19:22:20.334Z,40.67
2019-04-01T19:24:46.914Z,40.75
2019-04-01T19:27:13.286Z,40.87
2019-04-01T19:29:42.742Z,40.87
2019-04-01T19:32:09.429Z,40.70
2019-04-01T19:34:36.152Z,41.38
2019-04-01T19:37:03.263Z,41.57
2019-04-01T19:39:30.377Z,40.76
2019-04-01T19:41:56.878Z,41.01
2019-04-01T19:44:23.319Z,41.07
2019-04-01T19:46:49.557Z,41.07
2019-04-01T19:49:15.877Z,41.01
2019-04-01T19:51:42.275Z,41.43
2019-04-01T19:54:08.537Z,41.33
2019-04-01T19:56:34.992Z,41.66
2019-04-01T19:59:01.172Z,41.56
2019-04-01T20:01:29.331Z,42.16
2019-04-01T20:03:55.777Z,41.71
2019-04-01T20:06:22.040Z,42.30
2019-04-01T20:08:49.734Z,42.58
2019-04-01T20:11:16.190Z,41.97
2019-04-01T20:13:43.367Z,42.46
2019-04-01T20:16:10.247Z,42.45
2019-04-01T20:18:36.961Z,42.57
2019-04-01T20:21:03.430Z,42.86
2019-04-01T20:23:29.647Z,42.70
2019-04-01T20:25:55.969Z,42.82
2019-04-01T20:28:22.485Z,43.19
2019-04-01T20:30:48.603Z,43.17
2019-04-01T20:33:18.196Z,43.31
2019-04-01T20:35:43.044Z,43.52
2019-04-01T20:38:09.422Z,43.50
2019-04-01T20:40:35.744Z,43.36
2019-04-01T20:43:01.901Z,44.08
2019-04-01T20:45:28.147Z,44.07
2019-04-01T20:47:54.534Z,44.10
2019-04-01T20:50:20.829Z,44.47
2019-04-01T20:52:48.091Z,44.43
2019-04-01T20:55:14.610Z,44.45
2019-04-01T20:57:41.033Z,44.79
2019-04-01T21:00:09.319Z,45.20
2019-04-01T21:02:36.634Z,44.94
2019-04-01T21:05:07.501Z,45.11
2019-04-01T21:07:33.926Z,44.99
2019-04-01T21:10:00.269Z,45.05
2019-04-01T21:12:26.570Z,45.06
2019-04-01T21:14:56.059Z,45.20
2019-04-01T21:17:21.860Z,45.89
2019-04-01T21:19:48.111Z,45.75
2019-04-01T21:22:14.335Z,45.54
2019-04-01T21:24:40.636Z,45.66
2019-04-01T21:27:06.883Z,45.76
2019-04-01T21:29:33.158Z,45.92
2019-04-01T21:31:59.489Z,45.80
2019-04-01T21:34:25.819Z,45.98
2019-04-01T21:36:51.956Z,46.35
2019-04-01T21:39:18.096Z,46.20
2019-04-01T21:41:44.362Z,45.84
2019-04-01T21:44:10.696Z,46.14
2019-04-01T21:46:37.033Z,46.64
2019-04-01T21:49:03.382Z,46.69
2019-04-01T21:51:29.705Z,47.01
2019-04-01T21:53:55.926Z,47.17
2019-04-01T21:56:23.084Z,46.78
2019-04-01T21:58:49.885Z,47.12
2019-04-01T22:01:16.886Z,47.32
2019-04-01T22:03:44.792Z,47.03
2019-04-01T22:06:11.863Z,47.19
2019-04-01T22:08:38.096Z,47.47
2019-04-01T22:11:04.441Z,47.75
2019-04-01T22:13:30.859Z,47.90
2019-04-01T22:15:56.998Z,47.43
2019-04-01T22:18:23.109Z,47.86
2019-04-01T22:20:49.206Z,47.92
2019-04-01T22:23:15.562Z,48.16
2019-04-01T22:25:41.959Z,48.02
2019-04-01T22:28:08.192Z,48.04
2019-04-01T22:30:34.503Z,48.02
2019-04-01T22:33:00.650Z,47.99
2019-04-01T22:35:38.038Z,48.19
2019-04-01T22:37:56.224Z,48.71
2019-04-01T22:40:22.458Z,48.38
2019-04-01T22:42:48.711Z,48.40
2019-04-01T22:45:15.063Z,48.67
2019-04-01T22:47:41.304Z,48.75
2019-04-01T22:50:07.612Z,48.40
2019-04-01T22:52:35.267Z,49.08
2019-04-01T22:55:02.049Z,48.50
2019-04-01T22:57:28.340Z,48.96
2019-04-01T22:59:54.472Z,48.97
2019-04-01T23:02:21.722Z,49.13
2019-04-01T23:04:48.087Z,48.90
2019-04-01T23:07:15.308Z,49.36
2019-04-01T23:09:41.641Z,48.61
2019-04-01T23:12:07.841Z,49.48
2019-04-01T23:14:34.061Z,49.18
2019-04-01T23:17:00.271Z,49.39
2019-04-01T23:19:26.651Z,49.59
2019-04-01T23:21:52.877Z,49.52
2019-04-01T23:24:19.100Z,49.83
2019-04-01T23:26:45.345Z,49.68
2019-04-01T23:29:11.568Z,49.69
2019-04-01T23:31:38.499Z,49.37
2019-04-01T23:34:04.915Z,49.78
2019-04-01T23:36:31.184Z,49.73
2019-04-01T23:38:57.390Z,49.55
2019-04-01T23:41:23.737Z,49.68
2019-04-01T23:43:49.806Z,49.70
2019-04-01T23:46:16.038Z,49.31
2019-04-01T23:48:42.603Z,49.26
2019-04-01T23:51:08.974Z,49.95
2019-04-01T23:53:35.294Z,49.92
2019-04-01T23:56:01.584Z,49.86
2019-04-01T23:58:27.692Z,49.83
